Time;durP1;ratioP1;P1;durP2;ratioP2;P2;SDS_P1;SDS_P2;PMS_P1;PMS_P2;Temp;Humidity;BMP_temperature;BMP_pressure;BME280_temperature;BME280_humidity;BME280_pressure;Samples;Min_cycle;Max_cycle;Signal;HPM_P1;HPM_P2
2022/02/01 00:00:16;;;;;;;4.05;1.83;;;;;;;;;;5071798;28;20197;-77
2022/02/01 00:02:46;;;;;;;3.83;1.45;;;;;;;;;;5078739;28;21916;-78
2022/02/01 00:05:19;;;;;;;5.60;1.92;;;;;;;;;;5074122;28;20205;-79
2022/02/01 00:07:56;;;;;;;7.80;2.35;;;;;;;;;;5078715;28;20202;-79
2022/02/01 00:10:37;;;;;;;7.07;2.15;;;;;;;;;;5074951;28;20190;-79
2022/02/01 00:13:13;;;;;;;8.27;1.77;;;;;;;;;;5069437;28;20216;-77
2022/02/01 00:35:14;;;;;;;4.90;2.05;;;;;;;;;;5072292;28;20204;-78
2022/02/01 00:37:55;;;;;;;3.10;1.73;;;;;;;;;;5072167;28;20324;-78
2022/02/01 00:40:22;;;;;;;9.10;2.60;;;;;;;;;;5076614;28;20197;-78
2022/02/01 00:42:49;;;;;;;6.40;2.45;;;;;;;;;;5071409;28;20645;-78
2022/02/01 00:45:17;;;;;;;8.38;5.55;;;;;;;;;;5073007;28;20218;-78
2022/02/01 00:47:44;;;;;;;7.25;2.13;;;;;;;;;;5075025;28;20542;-78
2022/02/01 00:50:14;;;;;;;12.13;2.80;;;;;;;;;;5072228;28;20200;-78
2022/02/01 00:52:41;;;;;;;6.10;2.15;;;;;;;;;;5072438;28;20720;-78
2022/02/01 00:55:09;;;;;;;13.88;2.55;;;;;;;;;;5072708;28;20284;-78
2022/02/01 00:57:36;;;;;;;9.02;2.95;;;;;;;;;;5075334;28;20198;-78
2022/02/01 01:00:04;;;;;;;10.00;2.53;;;;;;;;;;5070752;28;20538;-78
2022/02/01 01:02:32;;;;;;;8.70;2.75;;;;;;;;;;5069701;28;20201;-79
2022/02/01 01:05:00;;;;;;;7.07;1.98;;;;;;;;;;5071848;28;20206;-78
2022/02/01 01:07:27;;;;;;;7.40;2.15;;;;;;;;;;5069973;28;20209;-78
2022/02/01 01:09:55;;;;;;;8.52;3.00;;;;;;;;;;5068406;28;20200;-78
2022/02/01 01:12:23;;;;;;;5.97;2.00;;;;;;;;;;5078979;28;20251;-78
2022/02/01 01:15:08;;;;;;;6.57;2.45;;;;;;;;;;5069620;28;20255;-78
2022/02/01 01:18:09;;;;;;;9.10;2.45;;;;;;;;;;5067886;28;20205;-78
2022/02/01 01:45:26;;;;;;;9.18;2.05;;;;;;;;;;5067326;28;20745;-78
2022/02/01 01:53:24;;;;;;;7.43;2.75;;;;;;;;;;5069458;28;20221;-78
2022/02/01 01:55:52;;;;;;;5.05;2.20;;;;;;;;;;5068004;28;20205;-78
2022/02/01 01:58:20;;;;;;;10.10;2.20;;;;;;;;;;5072594;28;20669;-78
2022/02/01 02:01:11;;;;;;;7.22;2.38;;;;;;;;;;5066441;28;20657;-77
2022/02/01 02:03:38;;;;;;;9.45;2.53;;;;;;;;;;5069329;28;20218;-77
2022/02/01 02:06:07;;;;;;;7.30;2.72;;;;;;;;;;5083087;28;20197;-80
2022/02/01 02:08:34;;;;;;;3.75;2.30;;;;;;;;;;5071614;28;20198;-77
2022/02/01 02:11:04;;;;;;;8.15;2.50;;;;;;;;;;5067617;28;20200;-78
2022/02/01 02:16:19;;;;;;;8.10;2.47;;;;;;;;;;5075138;28;20874;-78
2022/02/01 02:18:46;;;;;;;6.47;2.42;;;;;;;;;;5067699;28;20198;-78
2022/02/01 02:21:17;;;;;;;9.85;2.75;;;;;;;;;;5069136;28;20199;-77
2022/02/01 02:23:44;;;;;;;7.55;1.73;;;;;;;;;;5069183;28;20205;-78
2022/02/01 02:26:13;;;;;;;5.50;2.58;;;;;;;;;;5071628;28;20201;-77
2022/02/01 02:28:40;;;;;;;4.65;2.00;;;;;;;;;;5072767;28;20202;-77
2022/02/01 02:31:07;;;;;;;6.10;2.10;;;;;;;;;;5072896;28;20212;-77
2022/02/01 02:33:34;;;;;;;6.32;2.05;;;;;;;;;;5072918;28;20221;-77
2022/02/01 02:36:05;;;;;;;7.75;2.20;;;;;;;;;;5066428;28;20233;-77
2022/02/01 02:38:39;;;;;;;6.80;1.85;;;;;;;;;;5073454;28;20201;-77
2022/02/01 02:41:24;;;;;;;8.52;3.00;;;;;;;;;;5069393;28;20256;-77
2022/02/01 02:46:37;;;;;;;7.10;2.03;;;;;;;;;;5073164;28;20667;-77
2022/02/01 02:49:05;;;;;;;12.32;3.10;;;;;;;;;;5070928;28;20224;-77
2022/02/01 02:51:32;;;;;;;9.63;2.63;;;;;;;;;;5067452;28;20699;-77
2022/02/01 02:54:03;;;;;;;10.10;3.35;;;;;;;;;;5067375;28;20676;-77
2022/02/01 02:56:30;;;;;;;12.93;2.58;;;;;;;;;;5069633;28;20580;-76
2022/02/01 02:58:57;;;;;;;10.88;2.97;;;;;;;;;;5072070;28;20577;-76
2022/02/01 03:01:24;;;;;;;5.93;2.03;;;;;;;;;;5073797;28;21260;-76
2022/02/01 03:03:51;;;;;;;7.28;2.17;;;;;;;;;;5073399;28;20312;-76
2022/02/01 03:06:18;;;;;;;11.18;3.03;;;;;;;;;;5073431;28;20201;-80
2022/02/01 03:08:45;;;;;;;6.80;2.17;;;;;;;;;;5076342;28;20206;-79
2022/02/01 03:11:15;;;;;;;7.32;2.28;;;;;;;;;;5069414;28;20729;-80
2022/02/01 03:13:48;;;;;;;7.57;3.17;;;;;;;;;;5071065;28;20241;-78
2022/02/01 03:16:30;;;;;;;5.80;1.90;;;;;;;;;;5073895;28;20557;-76
2022/02/01 03:21:42;;;;;;;6.40;2.15;;;;;;;;;;5077403;28;20201;-77
2022/02/01 03:24:09;;;;;;;7.03;2.65;;;;;;;;;;5075715;28;20199;-76
2022/02/01 03:26:37;;;;;;;6.28;2.55;;;;;;;;;;5076024;28;20205;-78
2022/02/01 03:29:04;;;;;;;3.60;1.70;;;;;;;;;;5075724;28;20268;-76
2022/02/01 03:31:32;;;;;;;5.18;2.20;;;;;;;;;;5074811;28;20688;-76
2022/02/01 03:33:59;;;;;;;13.77;3.25;;;;;;;;;;5073206;28;20225;-76
2022/02/01 03:36:26;;;;;;;8.48;1.80;;;;;;;;;;5070743;28;20679;-76
2022/02/01 03:38:53;;;;;;;5.38;3.45;;;;;;;;;;5070282;28;20657;-77
2022/02/01 03:41:21;;;;;;;3.58;2.45;;;;;;;;;;5074368;28;20205;-77
2022/02/01 03:43:49;;;;;;;4.20;1.60;;;;;;;;;;5070859;28;20202;-76
2022/02/01 03:46:16;;;;;;;7.80;2.00;;;;;;;;;;5071502;28;20225;-76
2022/02/01 03:48:43;;;;;;;8.13;1.88;;;;;;;;;;5072540;28;20201;-76
2022/02/01 03:51:11;;;;;;;7.22;1.90;;;;;;;;;;5068665;28;20197;-76
2022/02/01 03:53:38;;;;;;;7.20;1.50;;;;;;;;;;5074002;28;20717;-76
2022/02/01 03:56:05;;;;;;;9.00;2.20;;;;;;;;;;5080014;28;20638;-77
2022/02/01 03:58:32;;;;;;;5.15;1.80;;;;;;;;;;5072157;28;20202;-77
2022/02/01 04:01:01;;;;;;;8.18;2.25;;;;;;;;;;5071646;28;20213;-76
2022/02/01 04:03:28;;;;;;;8.68;2.10;;;;;;;;;;5070836;28;20771;-76
2022/02/01 04:05:55;;;;;;;8.60;2.63;;;;;;;;;;5078426;28;20202;-77
2022/02/01 04:08:23;;;;;;;9.38;2.78;;;;;;;;;;5077751;28;20256;-77
2022/02/01 04:10:51;;;;;;;4.03;2.13;;;;;;;;;;5080869;28;20293;-76
2022/02/01 04:13:19;;;;;;;9.65;1.77;;;;;;;;;;5077270;28;20202;-76
2022/02/01 04:15:46;;;;;;;9.60;1.98;;;;;;;;;;5072788;28;20200;-76
2022/02/01 04:18:14;;;;;;;3.95;1.60;;;;;;;;;;5070862;28;20644;-76
2022/02/01 04:20:42;;;;;;;6.03;1.52;;;;;;;;;;5070288;28;20259;-76
2022/02/01 04:23:09;;;;;;;5.00;1.90;;;;;;;;;;5071740;28;20228;-77
2022/02/01 04:25:36;;;;;;;6.35;2.47;;;;;;;;;;5073254;28;20201;-76
2022/02/01 04:28:03;;;;;;;6.20;1.58;;;;;;;;;;5071844;28;20745;-77
2022/02/01 04:30:30;;;;;;;3.80;1.20;;;;;;;;;;5069268;28;20190;-76
2022/02/01 04:32:57;;;;;;;4.32;1.83;;;;;;;;;;5072816;28;20206;-75
2022/02/01 04:35:27;;;;;;;5.45;1.80;;;;;;;;;;5071659;28;20273;-75
2022/02/01 04:37:54;;;;;;;5.90;1.92;;;;;;;;;;5086310;28;20276;-75
2022/02/01 04:40:23;;;;;;;5.57;1.35;;;;;;;;;;5072834;28;20198;-76
2022/02/01 04:42:50;;;;;;;9.00;1.90;;;;;;;;;;5083936;28;20189;-75
2022/02/01 04:45:20;;;;;;;5.55;1.90;;;;;;;;;;5080141;28;20213;-77
2022/02/01 04:47:47;;;;;;;5.45;1.90;;;;;;;;;;5088562;28;20649;-76
2022/02/01 04:50:18;;;;;;;6.45;2.00;;;;;;;;;;5087517;28;20436;-76
2022/02/01 04:52:50;;;;;;;9.43;1.80;;;;;;;;;;5072969;28;20585;-77
2022/02/01 04:55:17;;;;;;;4.55;1.38;;;;;;;;;;5070352;28;20226;-77
2022/02/01 04:57:54;;;;;;;6.30;1.48;;;;;;;;;;5072293;28;20209;-77
2022/02/01 05:00:22;;;;;;;3.20;1.63;;;;;;;;;;5070012;28;20546;-76
2022/02/01 05:02:49;;;;;;;7.28;2.60;;;;;;;;;;5071651;28;20206;-77
2022/02/01 05:05:18;;;;;;;4.57;1.85;;;;;;;;;;5069273;28;20186;-77
2022/02/01 05:07:47;;;;;;;6.88;1.92;;;;;;;;;;5070367;28;20195;-77
2022/02/01 05:10:15;;;;;;;6.05;2.65;;;;;;;;;;5068983;28;20285;-77
2022/02/01 05:12:42;;;;;;;3.88;1.85;;;;;;;;;;5079650;28;20201;-76
2022/02/01 05:15:10;;;;;;;3.33;1.77;;;;;;;;;;5070472;28;20736;-77
2022/02/01 05:17:40;;;;;;;5.60;1.80;;;;;;;;;;5073112;28;20198;-77
2022/02/01 05:20:23;;;;;;;3.35;1.40;;;;;;;;;;5071560;28;20213;-77
2022/02/01 05:22:52;;;;;;;1.58;1.10;;;;;;;;;;5070573;28;20201;-77
2022/02/01 05:25:26;;;;;;;4.38;1.55;;;;;;;;;;5072247;28;20194;-77
2022/02/01 05:27:53;;;;;;;3.25;1.60;;;;;;;;;;5068407;28;20527;-77
2022/02/01 05:30:21;;;;;;;10.43;1.67;;;;;;;;;;5068020;28;20247;-78
2022/02/01 05:32:48;;;;;;;6.30;2.22;;;;;;;;;;5071298;28;20224;-77
2022/02/01 05:35:15;;;;;;;4.00;2.22;;;;;;;;;;5071117;28;20581;-76
2022/02/01 05:37:42;;;;;;;6.18;1.77;;;;;;;;;;5069971;28;20194;-76
2022/02/01 05:40:11;;;;;;;7.28;2.00;;;;;;;;;;5072449;28;20198;-77
2022/02/01 05:42:44;;;;;;;8.05;1.65;;;;;;;;;;5070600;28;20209;-77
2022/02/01 05:45:11;;;;;;;5.82;1.80;;;;;;;;;;5072659;28;20225;-77
2022/02/01 05:47:38;;;;;;;5.78;2.45;;;;;;;;;;5072039;28;20194;-77
2022/02/01 05:50:06;;;;;;;10.27;2.10;;;;;;;;;;5074626;28;20233;-77
2022/02/01 05:52:33;;;;;;;9.02;1.98;;;;;;;;;;5070694;28;20240;-77
2022/02/01 05:55:01;;;;;;;3.25;1.50;;;;;;;;;;5070899;28;20221;-77
2022/02/01 05:57:29;;;;;;;4.88;1.77;;;;;;;;;;5069625;28;20828;-76
2022/02/01 05:59:56;;;;;;;5.10;1.90;;;;;;;;;;5081543;28;20201;-76
2022/02/01 06:02:24;;;;;;;2.95;1.20;;;;;;;;;;5074940;28;20206;-76
2022/02/01 06:04:51;;;;;;;3.47;2.00;;;;;;;;;;5075781;28;20198;-76
2022/02/01 06:07:18;;;;;;;5.45;2.30;;;;;;;;;;5078898;28;20190;-76
2022/02/01 06:09:45;;;;;;;3.50;1.90;;;;;;;;;;5067248;28;20210;-76
2022/02/01 06:12:12;;;;;;;13.73;4.10;;;;;;;;;;5078808;28;20208;-76
2022/02/01 06:14:40;;;;;;;3.95;1.90;;;;;;;;;;5071006;28;20228;-76
2022/02/01 06:17:08;;;;;;;5.32;1.85;;;;;;;;;;5079767;28;20204;-76
2022/02/01 06:19:35;;;;;;;7.50;2.90;;;;;;;;;;5082419;28;20201;-77
2022/02/01 06:22:02;;;;;;;6.38;1.90;;;;;;;;;;5069930;28;20210;-76
2022/02/01 06:24:31;;;;;;;8.25;2.30;;;;;;;;;;5078768;28;20297;-76
2022/02/01 06:26:58;;;;;;;3.67;1.88;;;;;;;;;;5083085;28;20198;-77
2022/02/01 06:29:25;;;;;;;6.47;2.65;;;;;;;;;;5069316;28;20407;-77
2022/02/01 06:31:54;;;;;;;5.53;2.30;;;;;;;;;;5090061;28;20270;-77
2022/02/01 06:34:22;;;;;;;6.55;2.08;;;;;;;;;;5082156;28;20225;-77
2022/02/01 06:36:49;;;;;;;9.07;2.10;;;;;;;;;;5077068;28;20197;-76
2022/02/01 06:39:16;;;;;;;15.02;3.33;;;;;;;;;;5079183;28;20194;-76
2022/02/01 06:41:43;;;;;;;4.05;2.28;;;;;;;;;;5084755;28;20642;-77
2022/02/01 06:44:10;;;;;;;6.40;2.10;;;;;;;;;;5076048;28;20202;-76
2022/02/01 06:46:37;;;;;;;8.13;3.38;;;;;;;;;;5075003;28;20209;-76
2022/02/01 06:49:09;;;;;;;8.45;2.13;;;;;;;;;;5082411;28;20197;-77
2022/02/01 06:51:36;;;;;;;10.00;3.25;;;;;;;;;;5071726;28;20197;-76
2022/02/01 06:54:04;;;;;;;5.70;1.88;;;;;;;;;;5082438;28;20217;-78
2022/02/01 06:56:33;;;;;;;5.60;2.08;;;;;;;;;;5087638;28;20479;-77
2022/02/01 06:59:00;;;;;;;5.40;1.33;;;;;;;;;;5089071;28;20206;-78
2022/02/01 07:01:28;;;;;;;9.38;2.53;;;;;;;;;;5082851;28;20197;-77
2022/02/01 07:03:55;;;;;;;9.75;2.47;;;;;;;;;;5079968;28;20197;-77
2022/02/01 07:06:24;;;;;;;8.85;2.47;;;;;;;;;;5085952;28;20209;-77
2022/02/01 07:08:51;;;;;;;5.10;2.30;;;;;;;;;;5083207;28;20246;-77
2022/02/01 07:11:19;;;;;;;7.47;2.85;;;;;;;;;;5076892;28;20197;-76
2022/02/01 07:13:47;;;;;;;4.97;3.55;;;;;;;;;;5085755;28;20202;-77
2022/02/01 07:16:14;;;;;;;7.93;2.30;;;;;;;;;;5075980;28;20317;-75
2022/02/01 07:18:41;;;;;;;5.53;2.13;;;;;;;;;;5082699;28;20591;-75
2022/02/01 07:21:08;;;;;;;5.07;2.33;;;;;;;;;;5078453;28;20201;-76
2022/02/01 07:23:38;;;;;;;5.50;2.58;;;;;;;;;;5087225;28;20205;-76
2022/02/01 07:26:07;;;;;;;6.30;1.80;;;;;;;;;;5082333;28;20212;-76
2022/02/01 07:28:34;;;;;;;6.50;1.75;;;;;;;;;;5071592;28;20198;-77
2022/02/01 07:31:01;;;;;;;4.80;2.55;;;;;;;;;;5075399;28;20212;-75
2022/02/01 07:33:29;;;;;;;5.18;1.95;;;;;;;;;;5076154;28;21178;-78
2022/02/01 07:35:56;;;;;;;4.25;2.20;;;;;;;;;;5071935;28;20222;-77
2022/02/01 07:38:24;;;;;;;10.25;2.47;;;;;;;;;;5073215;28;20221;-77
2022/02/01 07:40:54;;;;;;;3.90;2.20;;;;;;;;;;5076538;28;20194;-76
2022/02/01 07:43:21;;;;;;;4.30;1.95;;;;;;;;;;5077650;28;20209;-76
2022/02/01 07:45:50;;;;;;;6.32;2.53;;;;;;;;;;5072333;28;20210;-76
2022/02/01 07:48:18;;;;;;;7.22;2.30;;;;;;;;;;5074022;28;20204;-76
2022/02/01 07:50:45;;;;;;;4.68;2.92;;;;;;;;;;5075664;28;20205;-76
2022/02/01 07:53:13;;;;;;;5.18;2.25;;;;;;;;;;5087084;28;20606;-76
2022/02/01 07:55:40;;;;;;;6.60;2.33;;;;;;;;;;5080997;28;20699;-76
2022/02/01 07:58:09;;;;;;;8.52;2.15;;;;;;;;;;5081568;28;20672;-77
2022/02/01 08:00:36;;;;;;;6.72;2.38;;;;;;;;;;5076950;28;20323;-76
2022/02/01 08:03:03;;;;;;;3.13;2.20;;;;;;;;;;5078887;28;20198;-76
2022/02/01 08:05:32;;;;;;;6.10;2.95;;;;;;;;;;5075625;28;20691;-77
2022/02/01 08:08:01;;;;;;;6.28;2.75;;;;;;;;;;5083563;28;20284;-77
2022/02/01 08:10:34;;;;;;;7.20;3.15;;;;;;;;;;5076269;28;20250;-77
2022/02/01 08:21:43;;;;;;;7.32;2.65;;;;;;;;;;4996218;28;20255;-77
2022/02/01 08:24:10;;;;;;;4.95;2.35;;;;;;;;;;5062338;28;20193;-76
2022/02/01 08:26:37;;;;;;;8.50;2.45;;;;;;;;;;5084651;28;20198;-77
2022/02/01 08:29:05;;;;;;;4.13;2.45;;;;;;;;;;5077347;28;20197;-77
2022/02/01 08:31:34;;;;;;;10.57;2.20;;;;;;;;;;5075381;28;20210;-77
2022/02/01 08:34:01;;;;;;;7.85;2.75;;;;;;;;;;5075372;28;20190;-76
2022/02/01 08:36:28;;;;;;;9.52;3.05;;;;;;;;;;5084507;28;20722;-76
2022/02/01 08:38:55;;;;;;;8.27;3.58;;;;;;;;;;5081909;28;20671;-77
2022/02/01 08:41:22;;;;;;;7.95;2.83;;;;;;;;;;5085303;28;20232;-77
2022/02/01 08:43:49;;;;;;;14.18;3.60;;;;;;;;;;5076272;28;20655;-77
2022/02/01 08:46:18;;;;;;;6.28;3.90;;;;;;;;;;5076446;28;20206;-76
2022/02/01 08:48:46;;;;;;;6.72;3.00;;;;;;;;;;5076151;28;20638;-76
2022/02/01 08:51:16;;;;;;;5.53;2.63;;;;;;;;;;5081302;28;20194;-77
2022/02/01 08:53:55;;;;;;;10.75;4.90;;;;;;;;;;5087697;28;20198;-76
2022/02/01 08:59:08;;;;;;;8.18;2.88;;;;;;;;;;5083350;28;20188;-77
2022/02/01 09:01:35;;;;;;;4.70;2.85;;;;;;;;;;5086082;28;20202;-77
2022/02/01 09:04:03;;;;;;;8.43;3.05;;;;;;;;;;5084779;28;20668;-76
2022/02/01 09:06:30;;;;;;;7.97;3.47;;;;;;;;;;5082465;28;20206;-76
2022/02/01 09:08:57;;;;;;;5.65;3.50;;;;;;;;;;5084694;28;20200;-77
2022/02/01 09:11:25;;;;;;;8.55;3.30;;;;;;;;;;5084816;28;20197;-77
2022/02/01 09:13:52;;;;;;;5.90;4.07;;;;;;;;;;5089105;28;20189;-77
2022/02/01 09:16:20;;;;;;;7.20;4.28;;;;;;;;;;5076170;28;20209;-77
2022/02/01 09:18:47;;;;;;;8.95;3.85;;;;;;;;;;5087412;28;20200;-76
2022/02/01 09:21:16;;;;;;;6.10;4.35;;;;;;;;;;5084889;28;20267;-77
2022/02/01 09:23:43;;;;;;;5.03;3.85;;;;;;;;;;5079495;28;20205;-77
2022/02/01 09:26:10;;;;;;;7.47;3.70;;;;;;;;;;5076421;28;20197;-77
2022/02/01 09:28:37;;;;;;;8.88;3.90;;;;;;;;;;5078188;28;20205;-77
2022/02/01 09:31:05;;;;;;;6.30;2.80;;;;;;;;;;5073928;28;20206;-77
2022/02/01 09:33:32;;;;;;;7.75;3.55;;;;;;;;;;5076054;28;20565;-77
2022/02/01 09:36:00;;;;;;;4.22;3.33;;;;;;;;;;5066526;28;20222;-78
2022/02/01 09:38:31;;;;;;;5.82;4.28;;;;;;;;;;5071762;28;20206;-77
2022/02/01 09:40:58;;;;;;;7.63;3.65;;;;;;;;;;5069680;28;20201;-77
2022/02/01 09:43:25;;;;;;;6.43;3.28;;;;;;;;;;5072853;28;20209;-76
2022/02/01 09:45:53;;;;;;;4.13;3.83;;;;;;;;;;5070551;28;20217;-77
2022/02/01 09:48:20;;;;;;;5.60;4.20;;;;;;;;;;5075395;28;20213;-76
2022/02/01 09:50:47;;;;;;;5.32;3.47;;;;;;;;;;5072993;28;20201;-76
2022/02/01 09:53:15;;;;;;;6.90;3.97;;;;;;;;;;5073555;28;20225;-77
2022/02/01 09:55:43;;;;;;;5.15;3.50;;;;;;;;;;5069385;28;20228;-77
2022/02/01 09:58:12;;;;;;;5.07;2.97;;;;;;;;;;5076036;28;20197;-76
2022/02/01 10:00:44;;;;;;;7.95;3.22;;;;;;;;;;5071474;28;20202;-77
2022/02/01 10:03:15;;;;;;;9.20;2.95;;;;;;;;;;5073449;28;20281;-77
2022/02/01 10:05:44;;;;;;;5.18;3.53;;;;;;;;;;5077822;28;20194;-77
2022/02/01 10:08:11;;;;;;;5.78;3.35;;;;;;;;;;5078684;28;20201;-77
2022/02/01 10:10:38;;;;;;;4.13;3.33;;;;;;;;;;5075630;28;20677;-77
2022/02/01 10:13:13;;;;;;;8.32;4.43;;;;;;;;;;5073005;28;20656;-77
2022/02/01 10:15:40;;;;;;;5.10;3.33;;;;;;;;;;5071868;28;20266;-77
2022/02/01 10:18:09;;;;;;;6.60;3.25;;;;;;;;;;5072137;28;20197;-77
2022/02/01 10:20:41;;;;;;;4.47;2.70;;;;;;;;;;5068108;28;20278;-77
2022/02/01 10:23:18;;;;;;;5.60;2.85;;;;;;;;;;5077920;28;20303;-76
2022/02/01 10:25:58;;;;;;;5.75;3.38;;;;;;;;;;5072212;28;20201;-77
2022/02/01 10:28:32;;;;;;;3.90;3.20;;;;;;;;;;5074943;28;20251;-76
2022/02/01 10:31:05;;;;;;;3.78;2.80;;;;;;;;;;5075413;28;20209;-76
2022/02/01 10:33:54;;;;;;;3.58;2.55;;;;;;;;;;5073193;28;20207;-77
2022/02/01 10:36:22;;;;;;;4.82;2.63;;;;;;;;;;5072558;28;20225;-77
2022/02/01 10:38:50;;;;;;;3.92;2.92;;;;;;;;;;5072614;28;20206;-77
2022/02/01 10:41:18;;;;;;;3.03;2.35;;;;;;;;;;5068977;28;20293;-76
2022/02/01 10:43:52;;;;;;;4.75;3.58;;;;;;;;;;5072989;28;20197;-78
2022/02/01 10:46:21;;;;;;;7.05;4.03;;;;;;;;;;5069219;28;20218;-77
2022/02/01 10:48:49;;;;;;;4.35;3.17;;;;;;;;;;5074042;28;20259;-77
2022/02/01 10:51:17;;;;;;;4.45;3.10;;;;;;;;;;5069784;28;20568;-77
2022/02/01 10:53:45;;;;;;;5.25;3.95;;;;;;;;;;5073211;28;20205;-77
2022/02/01 10:56:12;;;;;;;4.50;3.40;;;;;;;;;;5070003;28;20225;-77
2022/02/01 10:58:40;;;;;;;3.65;3.28;;;;;;;;;;5067572;28;20201;-77
2022/02/01 11:01:10;;;;;;;3.15;2.80;;;;;;;;;;5071988;28;20569;-77
2022/02/01 11:03:41;;;;;;;3.10;2.20;;;;;;;;;;5073102;28;20202;-76
2022/02/01 11:06:08;;;;;;;3.08;2.78;;;;;;;;;;5068555;28;20194;-76
2022/02/01 11:08:39;;;;;;;2.42;2.20;;;;;;;;;;5077237;28;20202;-76
2022/02/01 11:11:06;;;;;;;4.25;3.83;;;;;;;;;;5076391;28;20832;-77
2022/02/01 11:13:38;;;;;;;3.33;3.03;;;;;;;;;;5078548;28;20209;-77
2022/02/01 11:16:06;;;;;;;3.95;3.55;;;;;;;;;;5083262;28;20222;-76
2022/02/01 11:18:34;;;;;;;6.63;4.43;;;;;;;;;;5086668;28;20569;-77
2022/02/01 11:21:12;;;;;;;5.50;4.95;;;;;;;;;;5085420;28;20656;-77
2022/02/01 11:23:47;;;;;;;8.50;4.50;;;;;;;;;;5082719;28;20233;-76
2022/02/01 11:26:21;;;;;;;5.10;4.28;;;;;;;;;;5073917;28;20196;-76
2022/02/01 11:29:12;;;;;;;6.53;4.32;;;;;;;;;;5079169;28;21028;-76
2022/02/01 11:31:43;;;;;;;6.45;5.75;;;;;;;;;;5077156;28;20210;-76
2022/02/01 11:34:16;;;;;;;6.03;4.32;;;;;;;;;;5090862;28;20200;-76
2022/02/01 11:36:43;;;;;;;7.28;5.15;;;;;;;;;;5080290;28;20233;-76
2022/02/01 11:39:11;;;;;;;5.82;5.22;;;;;;;;;;5085146;28;20202;-76
2022/02/01 11:41:39;;;;;;;8.07;4.65;;;;;;;;;;5085937;28;20201;-77
2022/02/01 11:44:10;;;;;;;4.80;4.38;;;;;;;;;;5087716;28;20202;-76
2022/02/01 11:46:38;;;;;;;5.13;4.63;;;;;;;;;;5078724;28;20245;-77
2022/02/01 11:49:05;;;;;;;4.60;4.20;;;;;;;;;;5072378;28;20534;-77
2022/02/01 11:51:34;;;;;;;6.40;4.70;;;;;;;;;;5070532;28;20221;-77
2022/02/01 11:54:01;;;;;;;5.43;3.85;;;;;;;;;;5081081;28;20200;-76
2022/02/01 11:56:33;;;;;;;4.50;4.10;;;;;;;;;;5078724;28;20311;-77
2022/02/01 11:59:03;;;;;;;6.82;4.63;;;;;;;;;;5074577;28;20645;-77
2022/02/01 12:01:31;;;;;;;5.53;4.93;;;;;;;;;;5076822;28;20308;-77
2022/02/01 12:04:03;;;;;;;7.10;4.75;;;;;;;;;;5074299;28;20624;-77
2022/02/01 12:06:40;;;;;;;4.85;4.32;;;;;;;;;;5075864;28;20251;-77
2022/02/01 12:09:11;;;;;;;5.82;4.70;;;;;;;;;;5073396;28;20197;-77
2022/02/01 12:11:39;;;;;;;5.32;4.85;;;;;;;;;;5076161;28;20317;-76
2022/02/01 12:14:08;;;;;;;5.75;5.15;;;;;;;;;;5073898;28;20218;-77
2022/02/01 12:16:35;;;;;;;4.60;4.10;;;;;;;;;;5074511;28;20252;-76
2022/02/01 12:19:04;;;;;;;5.68;5.18;;;;;;;;;;5077696;28;20206;-77
2022/02/01 12:21:36;;;;;;;7.05;5.13;;;;;;;;;;5077293;28;20198;-77
2022/02/01 12:24:06;;;;;;;6.07;5.25;;;;;;;;;;5077506;28;20676;-77
2022/02/01 12:26:33;;;;;;;6.00;4.70;;;;;;;;;;5074777;28;20584;-77
2022/02/01 12:29:03;;;;;;;7.05;4.55;;;;;;;;;;5083115;28;20730;-77
2022/02/01 12:31:30;;;;;;;4.78;4.20;;;;;;;;;;5080055;28;20205;-77
2022/02/01 12:33:58;;;;;;;5.22;4.72;;;;;;;;;;5086135;28;20198;-76
2022/02/01 12:36:28;;;;;;;5.63;5.03;;;;;;;;;;5079966;28;20692;-76
2022/02/01 12:39:02;;;;;;;4.70;4.30;;;;;;;;;;5078901;28;20312;-77
2022/02/01 12:41:40;;;;;;;4.50;4.20;;;;;;;;;;5072774;28;20959;-77
2022/02/01 12:46:55;;;;;;;5.65;4.80;;;;;;;;;;5080409;28;20209;-76
2022/02/01 12:49:33;;;;;;;4.70;4.30;;;;;;;;;;5076308;28;20209;-76
2022/02/01 12:52:00;;;;;;;4.28;3.88;;;;;;;;;;5082266;28;20600;-77
2022/02/01 12:54:29;;;;;;;4.88;4.38;;;;;;;;;;5083810;28;20201;-76
2022/02/01 12:57:07;;;;;;;3.88;3.47;;;;;;;;;;5077088;28;20217;-77
2022/02/01 12:59:38;;;;;;;5.68;5.18;;;;;;;;;;5075431;28;20208;-77
2022/02/01 13:02:06;;;;;;;6.30;4.70;;;;;;;;;;5072429;28;20568;-76
2022/02/01 13:04:33;;;;;;;6.45;4.70;;;;;;;;;;5074758;28;20225;-77
2022/02/01 13:07:01;;;;;;;5.90;5.32;;;;;;;;;;5073432;28;20551;-77
2022/02/01 13:15:13;;;;;;;5.07;4.45;;;;;;;;;;5078751;28;20308;-77
2022/02/01 13:18:01;;;;;;;4.05;3.70;;;;;;;;;;5076106;28;20217;-76
2022/02/01 13:20:28;;;;;;;5.55;5.05;;;;;;;;;;5075046;28;20199;-77
2022/02/01 13:23:01;;;;;;;5.50;5.00;;;;;;;;;;5085688;28;20197;-77
2022/02/01 13:25:31;;;;;;;5.95;5.40;;;;;;;;;;5079207;28;20209;-77
2022/02/01 13:28:00;;;;;;;6.38;5.25;;;;;;;;;;5077212;28;20243;-77
2022/02/01 13:30:27;;;;;;;4.90;4.50;;;;;;;;;;5071397;28;20202;-77
2022/02/01 13:32:54;;;;;;;6.47;5.60;;;;;;;;;;5069110;28;20205;-76
2022/02/01 13:35:21;;;;;;;5.60;5.10;;;;;;;;;;5072723;28;20574;-76
2022/02/01 13:37:51;;;;;;;4.45;4.05;;;;;;;;;;5088427;28;20221;-77
2022/02/01 13:40:25;;;;;;;4.72;3.72;;;;;;;;;;5085895;28;20280;-75
2022/02/01 13:42:53;;;;;;;4.53;4.13;;;;;;;;;;5085702;28;20205;-76
2022/02/01 13:45:21;;;;;;;5.05;4.60;;;;;;;;;;5068598;28;20225;-76
2022/02/01 13:47:50;;;;;;;4.15;3.72;;;;;;;;;;5077001;28;20190;-74
2022/02/01 13:50:19;;;;;;;5.75;4.20;;;;;;;;;;5067994;28;20654;-77
2022/02/01 13:52:56;;;;;;;3.72;3.42;;;;;;;;;;5075720;28;20197;-77
2022/02/01 13:55:24;;;;;;;3.78;3.47;;;;;;;;;;5073488;28;20198;-77
2022/02/01 13:57:53;;;;;;;3.40;3.20;;;;;;;;;;5070207;28;20308;-77
2022/02/01 14:00:31;;;;;;;3.25;2.95;;;;;;;;;;5069528;28;21686;-78
2022/02/01 14:03:04;;;;;;;3.53;3.20;;;;;;;;;;5078391;28;20238;-77
2022/02/01 14:05:34;;;;;;;3.55;3.22;;;;;;;;;;5078433;28;20194;-77
2022/02/01 14:08:21;;;;;;;3.40;3.20;;;;;;;;;;5078938;28;20653;-77
2022/02/01 14:10:55;;;;;;;3.40;3.20;;;;;;;;;;5077347;28;20672;-76
2022/02/01 14:13:58;;;;;;;2.40;2.20;;;;;;;;;;5082985;28;20660;-76
2022/02/01 14:27:31;;;;;;;3.20;2.90;;;;;;;;;;5074279;28;20194;-77
2022/02/01 14:33:24;;;;;;;2.42;2.30;;;;;;;;;;5073441;28;20237;-76
2022/02/01 14:35:48;;;;;;;3.13;2.83;;;;;;;;;;5069135;28;20565;-77
2022/02/01 14:38:34;;;;;;;2.70;2.50;;;;;;;;;;5074146;28;20205;-76
2022/02/01 14:43:51;;;;;;;3.70;2.72;;;;;;;;;;5075216;28;20230;-77
2022/02/01 14:46:18;;;;;;;2.65;2.45;;;;;;;;;;5072533;28;20214;-76
2022/02/01 14:48:47;;;;;;;3.67;3.38;;;;;;;;;;5074021;28;20209;-77
2022/02/01 14:51:14;;;;;;;2.75;2.55;;;;;;;;;;5074274;28;20201;-77
2022/02/01 14:53:41;;;;;;;3.70;2.45;;;;;;;;;;5078996;28;20202;-77
2022/02/01 14:56:11;;;;;;;2.90;2.45;;;;;;;;;;5076905;28;20209;-77
2022/02/01 15:04:26;;;;;;;2.78;2.05;;;;;;;;;;5075429;28;20280;-77
2022/02/01 15:07:03;;;;;;;2.50;2.30;;;;;;;;;;5078434;28;20197;-76
2022/02/01 15:12:38;;;;;;;1.98;1.88;;;;;;;;;;5078115;28;20192;-77
2022/02/01 15:15:06;;;;;;;2.80;2.60;;;;;;;;;;5076916;28;20205;-77
2022/02/01 15:17:33;;;;;;;2.50;2.30;;;;;;;;;;5075131;28;20221;-76
2022/02/01 15:20:03;;;;;;;3.17;2.88;;;;;;;;;;5077028;28;20398;-77
2022/02/01 15:22:30;;;;;;;2.55;2.35;;;;;;;;;;5076485;28;20193;-77
2022/02/01 15:24:58;;;;;;;2.58;2.28;;;;;;;;;;5074611;28;20236;-76
2022/02/01 15:27:25;;;;;;;3.63;2.47;;;;;;;;;;5076163;28;20274;-77
2022/02/01 15:29:52;;;;;;;2.78;2.58;;;;;;;;;;5074270;28;20209;-76
2022/02/01 15:32:19;;;;;;;3.05;2.38;;;;;;;;;;5074737;28;20292;-76
2022/02/01 15:34:46;;;;;;;2.55;2.35;;;;;;;;;;5078601;28;20284;-77
2022/02/01 15:37:16;;;;;;;3.05;2.75;;;;;;;;;;5077884;28;20686;-77
2022/02/01 15:59:29;;;;;;;2.20;2.10;;;;;;;;;;5009545;28;20816;-76
2022/02/01 16:01:59;;;;;;;2.72;2.53;;;;;;;;;;5063532;28;20209;-76
2022/02/01 16:04:28;;;;;;;7.57;2.22;;;;;;;;;;5080752;28;20201;-76
2022/02/01 16:06:59;;;;;;;2.88;2.38;;;;;;;;;;5080744;28;20576;-77
2022/02/01 16:09:35;;;;;;;3.70;2.88;;;;;;;;;;5074262;28;20194;-77
2022/02/01 16:12:05;;;;;;;2.50;2.30;;;;;;;;;;5072789;28;20225;-76
2022/02/01 16:14:32;;;;;;;2.30;2.10;;;;;;;;;;5074820;28;20691;-77
2022/02/01 16:16:59;;;;;;;2.03;1.83;;;;;;;;;;5087728;28;20194;-76
2022/02/01 16:19:26;;;;;;;3.13;2.83;;;;;;;;;;5089592;28;20729;-77
2022/02/01 16:21:53;;;;;;;2.30;2.10;;;;;;;;;;5080629;28;20201;-78
2022/02/01 16:24:21;;;;;;;2.80;2.42;;;;;;;;;;5082140;28;20197;-76
2022/02/01 16:26:49;;;;;;;3.60;2.28;;;;;;;;;;5086787;28;20676;-77
2022/02/01 16:29:16;;;;;;;3.53;2.53;;;;;;;;;;5079568;28;20209;-76
2022/02/01 16:31:43;;;;;;;5.72;2.97;;;;;;;;;;5079324;28;20213;-77
2022/02/01 16:34:10;;;;;;;2.15;1.95;;;;;;;;;;5079012;28;20202;-77
2022/02/01 16:36:38;;;;;;;2.58;2.38;;;;;;;;;;5080347;28;20206;-77
2022/02/01 16:39:07;;;;;;;5.28;1.83;;;;;;;;;;5087536;28;20654;-77
2022/02/01 16:41:34;;;;;;;4.20;2.88;;;;;;;;;;5084750;28;20665;-76
2022/02/01 16:44:02;;;;;;;3.58;2.33;;;;;;;;;;5081672;28;20235;-76
2022/02/01 16:46:33;;;;;;;4.28;2.50;;;;;;;;;;5083551;28;20699;-77
2022/02/01 16:49:01;;;;;;;4.60;2.63;;;;;;;;;;5080982;28;20186;-77
2022/02/01 16:51:28;;;;;;;2.80;2.22;;;;;;;;;;5070132;28;20213;-78
2022/02/01 16:53:59;;;;;;;2.30;2.10;;;;;;;;;;5079283;28;20205;-76
2022/02/01 16:56:37;;;;;;;4.22;1.95;;;;;;;;;;5069536;28;20197;-76
2022/02/01 16:59:13;;;;;;;2.90;1.83;;;;;;;;;;5075734;28;20221;-77